Time;durP1;ratioP1;P1;durP2;ratioP2;P2;SDS_P1;SDS_P2;PMS_P1;PMS_P2;Temp;Humidity;BMP_temperature;BMP_pressure;BME280_temperature;BME280_humidity;BME280_pressure;Samples;Min_cycle;Max_cycle;Signal;HPM_P1;HPM_P2
2022/04/09 00:00:35;;;;;;;5.50;5.40;;;22.10;42.50;;;;;;5055292;28;20497;-50
2022/04/09 00:03:01;;;;;;;6.13;6.03;;;22.10;42.50;;;;;;5055080;28;20962;-47
2022/04/09 00:05:28;;;;;;;5.47;5.37;;;22.10;42.50;;;;;;5054913;28;20475;-50
2022/04/09 00:07:55;;;;;;;6.23;6.13;;;22.10;42.60;;;;;;5066565;28;20463;-48
2022/04/09 00:10:22;;;;;;;5.47;5.37;;;22.00;42.60;;;;;;5074706;28;20439;-47
2022/04/09 00:12:48;;;;;;;5.67;5.57;;;22.00;42.60;;;;;;5075299;28;20447;-49
2022/04/09 00:15:17;;;;;;;5.77;5.67;;;22.00;42.60;;;;;;5074816;28;20822;-52
2022/04/09 00:17:46;;;;;;;5.90;5.80;;;22.00;42.60;;;;;;5074919;28;20533;-48
2022/04/09 00:20:15;;;;;;;5.57;5.47;;;22.00;42.70;;;;;;5074389;28;20455;-50
2022/04/09 00:22:42;;;;;;;5.33;5.23;;;21.90;42.60;;;;;;5074789;28;20447;-48
2022/04/09 00:25:10;;;;;;;5.60;5.50;;;21.90;42.70;;;;;;5073971;28;20471;-52
2022/04/09 00:27:37;;;;;;;5.63;5.53;;;21.90;42.70;;;;;;5074450;28;20827;-48
2022/04/09 00:30:06;;;;;;;5.50;5.40;;;21.90;42.80;;;;;;5074975;28;20443;-47
2022/04/09 00:32:34;;;;;;;5.87;5.77;;;21.80;42.80;;;;;;5074740;28;20447;-47
2022/04/09 00:35:01;;;;;;;5.73;5.63;;;21.80;42.80;;;;;;5074532;28;20946;-51
2022/04/09 00:37:29;;;;;;;5.57;5.47;;;21.80;42.90;;;;;;5074185;28;20471;-47
2022/04/09 00:39:56;;;;;;;5.80;5.60;;;21.70;42.80;;;;;;5074435;28;20459;-47
2022/04/09 00:42:23;;;;;;;5.50;5.40;;;21.70;42.80;;;;;;5074062;28;21001;-48
2022/04/09 00:44:51;;;;;;;6.07;5.97;;;21.70;42.90;;;;;;5074317;28;20475;-48
2022/04/09 00:47:18;;;;;;;5.63;5.53;;;21.70;42.90;;;;;;5073848;28;20489;-49
2022/04/09 00:49:46;;;;;;;5.30;5.20;;;21.70;42.90;;;;;;5074107;28;20449;-48
2022/04/09 00:52:15;;;;;;;5.60;5.50;;;21.70;42.80;;;;;;5074366;28;20444;-48
2022/04/09 00:54:43;;;;;;;5.53;5.43;;;21.70;42.80;;;;;;5074219;28;20965;-48
2022/04/09 00:57:11;;;;;;;5.50;5.40;;;21.80;42.90;;;;;;5073729;28;20978;-49
2022/04/09 00:59:42;;;;;;;5.50;5.40;;;21.80;42.80;;;;;;5074090;28;20443;-48
2022/04/09 01:02:11;;;;;;;4.90;4.80;;;21.80;42.70;;;;;;5073664;28;20441;-53
2022/04/09 01:04:42;;;;;;;5.00;4.82;;;21.80;42.60;;;;;;5072634;28;20453;-48
2022/04/09 01:07:10;;;;;;;5.90;5.80;;;21.70;42.70;;;;;;5073800;28;20213;-51
2022/04/09 01:09:37;;;;;;;6.07;5.83;;;21.70;42.90;;;;;;5072703;28;20448;-49
2022/04/09 01:12:05;;;;;;;5.97;5.77;;;21.80;43.10;;;;;;5074188;28;20481;-53
2022/04/09 01:14:34;;;;;;;5.60;5.40;;;21.70;43.00;;;;;;5074096;28;20435;-50
2022/04/09 01:17:01;;;;;;;5.40;5.20;;;21.70;43.20;;;;;;5073511;28;20470;-48
2022/04/09 01:19:27;;;;;;;6.47;6.27;;;21.70;43.20;;;;;;5074004;28;20502;-48
2022/04/09 01:21:59;;;;;;;6.30;6.10;;;21.70;43.40;;;;;;5073883;28;20448;-48
2022/04/09 01:24:25;;;;;;;6.33;6.23;;;21.60;43.40;;;;;;5073821;28;20471;-48
2022/04/09 01:26:52;;;;;;;5.90;5.70;;;21.60;43.50;;;;;;5073359;28;20451;-54
2022/04/09 01:29:19;;;;;;;6.10;5.90;;;21.60;43.50;;;;;;5073915;28;20444;-48
2022/04/09 01:31:45;;;;;;;6.27;5.87;;;21.50;43.50;;;;;;5073727;28;20447;-48
2022/04/09 01:34:14;;;;;;;5.70;5.60;;;21.50;43.60;;;;;;5073699;28;20448;-51
2022/04/09 01:36:41;;;;;;;6.43;6.23;;;21.50;43.70;;;;;;5073099;28;20444;-49
2022/04/09 01:39:09;;;;;;;6.20;6.10;;;21.40;43.70;;;;;;5073533;28;20938;-48
2022/04/09 01:41:36;;;;;;;6.10;5.80;;;21.40;43.70;;;;;;5073559;28;20945;-48
2022/04/09 01:44:04;;;;;;;6.40;6.13;;;21.40;43.80;;;;;;5073035;28;20980;-52
2022/04/09 01:46:31;;;;;;;6.30;6.10;;;21.40;43.90;;;;;;5072863;28;21017;-49
2022/04/09 01:48:57;;;;;;;5.57;5.47;;;21.30;43.80;;;;;;5072771;28;20470;-49
2022/04/09 01:51:24;;;;;;;5.90;5.70;;;21.30;43.90;;;;;;5073453;28;20439;-49
2022/04/09 01:53:51;;;;;;;5.80;5.70;;;21.30;43.90;;;;;;5073300;28;20929;-50
2022/04/09 01:56:19;;;;;;;6.10;5.60;;;21.30;43.90;;;;;;5073155;28;20440;-48
2022/04/09 01:58:46;;;;;;;6.13;6.00;;;21.30;44.00;;;;;;5072895;28;20475;-48
2022/04/09 02:01:17;;;;;;;5.63;5.53;;;21.30;44.00;;;;;;5073205;28;20450;-48
2022/04/09 02:03:44;;;;;;;6.97;6.53;;;21.30;44.00;;;;;;5072981;28;20807;-48
2022/04/09 02:06:11;;;;;;;5.90;5.73;;;21.20;44.00;;;;;;5073110;28;20482;-48
2022/04/09 02:08:38;;;;;;;6.20;6.10;;;21.20;44.10;;;;;;5072587;28;20872;-48
2022/04/09 02:11:04;;;;;;;6.30;5.93;;;21.20;44.10;;;;;;5073157;28;20447;-48
2022/04/09 02:13:33;;;;;;;6.10;5.90;;;21.20;44.10;;;;;;5072866;28;20448;-53
2022/04/09 02:15:59;;;;;;;6.03;5.90;;;21.20;44.10;;;;;;5072706;28;20439;-51
2022/04/09 02:18:26;;;;;;;6.37;6.27;;;21.20;44.10;;;;;;5072506;28;20471;-48
2022/04/09 02:20:54;;;;;;;6.10;6.00;;;21.20;44.10;;;;;;5072654;28;20447;-48
2022/04/09 02:23:21;;;;;;;5.63;5.50;;;21.20;44.10;;;;;;5072538;28;20751;-48
2022/04/09 02:25:48;;;;;;;5.80;5.70;;;21.20;44.10;;;;;;5072775;28;20484;-53
2022/04/09 02:28:15;;;;;;;6.23;6.07;;;21.20;44.10;;;;;;5071897;28;20459;-56
2022/04/09 02:30:43;;;;;;;6.13;5.93;;;21.20;44.10;;;;;;5072295;28;20977;-48
2022/04/09 02:33:09;;;;;;;6.40;6.20;;;21.20;44.10;;;;;;5072569;28;20454;-50
2022/04/09 02:35:36;;;;;;;6.50;6.30;;;21.20;44.00;;;;;;5072253;28;20444;-50
2022/04/09 02:38:04;;;;;;;6.40;6.20;;;21.20;44.00;;;;;;5072039;28;20913;-48
2022/04/09 02:40:31;;;;;;;6.40;6.20;;;21.30;44.10;;;;;;5072135;28;20486;-48
2022/04/09 02:42:58;;;;;;;6.43;6.23;;;21.30;44.00;;;;;;5072491;28;20451;-53
2022/04/09 02:45:25;;;;;;;6.60;6.40;;;21.30;44.00;;;;;;5072380;28;20475;-48
2022/04/09 02:47:53;;;;;;;6.17;5.97;;;21.30;44.00;;;;;;5072093;28;21024;-48
2022/04/09 02:50:21;;;;;;;6.60;6.50;;;21.30;43.90;;;;;;5072210;28;20450;-48
2022/04/09 02:52:48;;;;;;;6.37;6.20;;;21.30;43.90;;;;;;5072211;28;20451;-48
2022/04/09 02:55:15;;;;;;;6.13;5.93;;;21.30;43.90;;;;;;5072189;28;20447;-58
2022/04/09 02:57:42;;;;;;;6.00;5.90;;;21.30;43.90;;;;;;5071514;28;20468;-48
2022/04/09 03:00:12;;;;;;;6.50;6.30;;;21.30;43.90;;;;;;5072199;28;20455;-54
2022/04/09 03:02:39;;;;;;;6.20;6.00;;;21.30;43.90;;;;;;5071980;28;20946;-51
2022/04/09 03:05:08;;;;;;;6.20;6.00;;;21.30;43.80;;;;;;5071576;28;20486;-48
2022/04/09 03:07:35;;;;;;;6.13;5.93;;;21.30;43.80;;;;;;5071618;28;20475;-48
2022/04/09 03:10:02;;;;;;;6.20;6.10;;;21.30;43.80;;;;;;5071858;28;20436;-49
2022/04/09 03:12:29;;;;;;;6.40;6.13;;;21.30;43.80;;;;;;5071900;28;20504;-49
2022/04/09 03:14:56;;;;;;;5.83;5.73;;;21.30;43.80;;;;;;5071560;28;20451;-48
2022/04/09 03:17:23;;;;;;;5.97;5.77;;;21.30;43.80;;;;;;5071694;28;20471;-48
2022/04/09 03:19:49;;;;;;;5.93;5.73;;;21.30;43.80;;;;;;5071698;28;20456;-49
2022/04/09 03:22:17;;;;;;;5.83;5.73;;;21.30;43.80;;;;;;5071691;28;20466;-48
2022/04/09 03:24:44;;;;;;;6.50;6.30;;;21.30;43.80;;;;;;5071526;28;20440;-49
2022/04/09 03:27:11;;;;;;;5.90;5.80;;;21.30;43.90;;;;;;5071362;28;20474;-50
2022/04/09 03:29:38;;;;;;;6.77;6.47;;;21.30;43.90;;;;;;5071918;28;20452;-48
2022/04/09 03:32:06;;;;;;;6.00;5.80;;;21.30;43.90;;;;;;5070954;28;20448;-48
2022/04/09 03:34:34;;;;;;;6.40;6.20;;;21.30;43.90;;;;;;5071324;28;20443;-48
2022/04/09 03:37:01;;;;;;;6.47;6.30;;;21.30;43.90;;;;;;5071523;28;20455;-50
2022/04/09 03:39:29;;;;;;;6.07;5.97;;;21.20;43.80;;;;;;5071535;28;20439;-52
2022/04/09 03:41:56;;;;;;;6.73;6.53;;;21.20;43.90;;;;;;5071551;28;20442;-50
2022/04/09 03:44:22;;;;;;;6.47;6.27;;;21.20;43.90;;;;;;5071396;28;20447;-49
2022/04/09 03:46:49;;;;;;;6.60;6.40;;;21.20;43.90;;;;;;5071082;28;21003;-48
2022/04/09 03:49:16;;;;;;;6.80;6.50;;;21.20;43.90;;;;;;5071495;28;20435;-51
2022/04/09 03:51:43;;;;;;;8.00;7.70;;;21.20;43.90;;;;;;5071458;28;20447;-48
2022/04/09 03:54:09;;;;;;;6.63;6.43;;;21.20;44.00;;;;;;5071372;28;20443;-48
2022/04/09 03:56:40;;;;;;;6.30;6.10;;;21.20;44.00;;;;;;5070742;28;20439;-52
2022/04/09 03:59:07;;;;;;;6.77;6.57;;;21.20;44.00;;;;;;5071448;28;20455;-49
2022/04/09 04:01:33;;;;;;;7.03;6.83;;;21.20;44.00;;;;;;5071294;28;20977;-48
2022/04/09 04:04:00;;;;;;;7.30;7.00;;;21.20;43.90;;;;;;5071511;28;20439;-52
2022/04/09 04:06:27;;;;;;;6.53;6.40;;;21.20;43.90;;;;;;5070797;28;20506;-49
2022/04/09 04:08:55;;;;;;;6.60;6.50;;;21.20;44.50;;;;;;5071447;28;20468;-50
2022/04/09 04:11:22;;;;;;;6.77;6.57;;;21.20;43.90;;;;;;5071229;28;20856;-48
2022/04/09 04:13:50;;;;;;;6.10;6.00;;;21.20;43.90;;;;;;5071142;28;20451;-54
2022/04/09 04:16:17;;;;;;;6.70;6.60;;;21.20;43.90;;;;;;5070934;28;20435;-55
2022/04/09 04:18:44;;;;;;;6.50;6.30;;;21.20;43.80;;;;;;5071085;28;20460;-53
2022/04/09 04:21:11;;;;;;;6.53;6.43;;;21.30;43.90;;;;;;5071114;28;20548;-51
2022/04/09 04:23:38;;;;;;;7.07;6.77;;;21.30;43.90;;;;;;5070795;28;20452;-49
2022/04/09 04:26:05;;;;;;;6.57;6.37;;;21.30;43.80;;;;;;5070799;28;20581;-52
2022/04/09 04:28:31;;;;;;;6.20;6.00;;;21.30;43.70;;;;;;5071082;28;20474;-49
2022/04/09 04:30:59;;;;;;;6.47;6.20;;;21.40;43.70;;;;;;5071032;28;20443;-49
2022/04/09 04:33:26;;;;;;;6.70;6.50;;;21.40;43.60;;;;;;5070774;28;20454;-48
2022/04/09 04:35:53;;;;;;;6.87;6.57;;;21.40;43.50;;;;;;5070761;28;20454;-53
2022/04/09 04:38:20;;;;;;;5.83;5.73;;;21.40;43.50;;;;;;5070827;28;20509;-48
2022/04/09 04:40:47;;;;;;;6.70;6.50;;;21.50;43.50;;;;;;5070978;28;20534;-49
2022/04/09 04:43:14;;;;;;;6.20;5.90;;;21.50;43.50;;;;;;5072614;28;20456;-52
2022/04/09 04:45:41;;;;;;;5.97;5.77;;;21.50;43.40;;;;;;5074418;28;20532;-48
2022/04/09 04:48:09;;;;;;;6.70;6.60;;;21.50;43.40;;;;;;5074691;28;20459;-55
2022/04/09 04:50:37;;;;;;;5.90;5.80;;;21.50;43.40;;;;;;5074608;28;20458;-48
2022/04/09 04:53:04;;;;;;;6.00;5.80;;;21.50;43.40;;;;;;5074399;28;20450;-48
2022/04/09 04:55:31;;;;;;;7.20;6.90;;;21.50;43.40;;;;;;5074321;28;20435;-49
2022/04/09 04:57:57;;;;;;;7.87;7.57;;;21.50;43.30;;;;;;5074063;28;20475;-53
2022/04/09 05:00:26;;;;;;;7.00;6.80;;;21.50;43.30;;;;;;5074315;28;20443;-48
2022/04/09 05:02:53;;;;;;;6.60;6.40;;;21.50;43.30;;;;;;5074358;28;20447;-49
2022/04/09 05:05:21;;;;;;;6.33;6.10;;;21.50;43.30;;;;;;5073856;28;20955;-53
2022/04/09 05:07:50;;;;;;;6.47;6.27;;;21.50;43.20;;;;;;5074093;28;20826;-50
2022/04/09 05:10:19;;;;;;;6.07;5.87;;;21.50;43.30;;;;;;5074204;28;20521;-48
2022/04/09 05:12:46;;;;;;;6.30;6.10;;;21.40;43.30;;;;;;5074146;28;20827;-51
2022/04/09 05:15:14;;;;;;;6.87;6.67;;;21.40;43.40;;;;;;5073784;28;20448;-53
2022/04/09 05:17:41;;;;;;;6.60;6.30;;;21.40;43.40;;;;;;5073857;28;20460;-49
2022/04/09 05:20:10;;;;;;;6.70;6.40;;;21.30;43.30;;;;;;5074013;28;20811;-50
2022/04/09 05:22:43;;;;;;;6.57;6.40;;;21.30;43.40;;;;;;5073957;28;20450;-48
2022/04/09 05:25:13;;;;;;;7.20;6.80;;;21.30;43.40;;;;;;5073702;28;20879;-48
2022/04/09 05:27:40;;;;;;;5.90;5.80;;;21.30;43.40;;;;;;5073752;28;20494;-48
2022/04/09 05:30:07;;;;;;;6.13;6.00;;;21.20;43.40;;;;;;5073730;28;20804;-50
2022/04/09 05:32:36;;;;;;;6.20;6.10;;;21.20;43.40;;;;;;5073752;28;20444;-51
2022/04/09 05:35:03;;;;;;;6.57;6.37;;;21.20;43.50;;;;;;5073439;28;20832;-52
2022/04/09 05:37:31;;;;;;;6.67;6.47;;;21.20;43.60;;;;;;5073360;28;20977;-48
2022/04/09 05:39:59;;;;;;;6.70;6.50;;;21.20;43.60;;;;;;5073780;28;21016;-49
2022/04/09 05:42:26;;;;;;;6.40;6.20;;;21.20;43.50;;;;;;5073556;28;20439;-49
2022/04/09 05:44:52;;;;;;;6.47;6.27;;;21.20;43.50;;;;;;5073344;28;20444;-48
2022/04/09 05:47:19;;;;;;;6.20;6.10;;;21.20;43.50;;;;;;5073112;28;20483;-50
2022/04/09 05:49:46;;;;;;;7.63;7.33;;;21.30;43.50;;;;;;5073303;28;20787;-48
2022/04/09 05:52:13;;;;;;;7.10;6.80;;;21.30;43.40;;;;;;5073319;28;20451;-49
2022/04/09 05:54:40;;;;;;;6.63;6.43;;;21.40;43.50;;;;;;5072485;28;20447;-48
2022/04/09 05:57:08;;;;;;;6.80;6.50;;;21.40;43.30;;;;;;5097237;22;20832;-52
2022/04/09 05:59:35;;;;;;;6.13;6.03;;;21.50;43.20;;;;;;5073371;28;20443;-51
2022/04/09 06:02:02;;;;;;;6.77;6.57;;;21.50;43.10;;;;;;5073402;28;20443;-51
2022/04/09 06:04:28;;;;;;;6.43;6.23;;;21.60;43.00;;;;;;5065338;28;20456;-50
2022/04/09 06:06:56;;;;;;;6.77;6.57;;;21.60;42.90;;;;;;5067016;28;20502;-52
2022/04/09 06:09:23;;;;;;;7.20;7.00;;;21.60;42.80;;;;;;5073156;28;20852;-50
2022/04/09 06:11:50;;;;;;;6.47;6.37;;;21.60;42.70;;;;;;5069495;28;20456;-55
2022/04/09 06:14:18;;;;;;;6.23;6.13;;;21.50;42.60;;;;;;5072969;28;21033;-49
2022/04/09 06:16:45;;;;;;;6.83;6.63;;;21.60;43.30;;;;;;5072740;28;20444;-47
2022/04/09 06:19:12;;;;;;;7.23;7.03;;;21.60;42.90;;;;;;5072733;28;20562;-49
2022/04/09 06:21:39;;;;;;;6.77;6.67;;;21.60;43.10;;;;;;5072729;28;20443;-49
2022/04/09 06:24:06;;;;;;;7.43;7.13;;;21.60;43.10;;;;;;5055111;28;20472;-50
2022/04/09 06:26:34;;;;;;;7.20;7.00;;;21.60;43.20;;;;;;5052452;28;20480;-51
2022/04/09 06:29:01;;;;;;;6.73;6.43;;;21.60;43.20;;;;;;5052736;28;20468;-52
2022/04/09 06:31:29;;;;;;;6.90;6.60;;;21.60;43.30;;;;;;5062070;28;20447;-46
2022/04/09 06:33:56;;;;;;;6.90;6.50;;;21.60;43.30;;;;;;5072474;28;20443;-50
2022/04/09 06:36:23;;;;;;;6.93;6.73;;;21.50;43.40;;;;;;5072251;28;20446;-50
2022/04/09 06:38:50;;;;;;;6.80;6.50;;;21.60;43.50;;;;;;5072443;28;20869;-47
2022/04/09 06:41:18;;;;;;;6.93;6.63;;;21.60;43.60;;;;;;5070683;28;20446;-48
2022/04/09 06:43:46;;;;;;;6.60;6.30;;;21.50;43.60;;;;;;5072387;28;20470;-51
2022/04/09 06:46:13;;;;;;;6.93;6.73;;;21.50;43.60;;;;;;5072085;28;21004;-51
2022/04/09 06:48:41;;;;;;;8.10;7.70;;;21.50;43.70;;;;;;5072201;28;20467;-54
2022/04/09 06:51:08;;;;;;;6.90;6.70;;;21.50;43.80;;;;;;5065446;28;20444;-53
2022/04/09 06:53:35;;;;;;;8.43;8.13;;;21.40;43.80;;;;;;5052343;28;20448;-50
2022/04/09 06:56:04;;;;;;;6.93;6.73;;;21.40;44.10;;;;;;5052126;28;20448;-56
2022/04/09 06:58:31;;;;;;;6.80;6.33;;;21.40;44.20;;;;;;5052163;28;20843;-51
2022/04/09 07:00:58;;;;;;;7.10;6.80;;;21.30;44.20;;;;;;5056780;28;20439;-50
2022/04/09 07:03:25;;;;;;;7.10;6.70;;;21.30;44.40;;;;;;5072104;28;20459;-49
2022/04/09 07:05:53;;;;;;;6.27;6.07;;;21.30;44.50;;;;;;5071231;28;20814;-49
2022/04/09 07:08:21;;;;;;;7.27;6.97;;;21.30;44.50;;;;;;5072033;28;20489;-50
2022/04/09 07:10:47;;;;;;;6.63;6.33;;;21.30;44.60;;;;;;5068806;28;20449;-49
2022/04/09 07:13:14;;;;;;;7.07;6.77;;;21.30;44.60;;;;;;5052254;28;20455;-51
2022/04/09 07:15:41;;;;;;;6.60;6.40;;;21.40;44.40;;;;;;5051788;28;20819;-50
2022/04/09 07:18:08;;;;;;;6.90;6.60;;;21.50;44.60;;;;;;5052030;28;20460;-50
2022/04/09 07:20:36;;;;;;;9.10;8.33;;;21.50;44.60;;;;;;5052809;28;20475;-51
2022/04/09 07:23:04;;;;;;;8.30;7.50;;;21.30;44.10;;;;;;5031751;28;20782;-51
2022/04/09 07:25:31;;;;;;;7.77;7.37;;;20.60;42.00;;;;;;5031601;28;20449;-51
2022/04/09 07:27:59;;;;;;;6.85;6.25;;;20.00;41.20;;;;;;5030858;28;20449;-52
2022/04/09 07:30:27;;;;;;;7.53;7.13;;;19.50;40.60;;;;;;5031765;28;20210;-51
2022/04/09 07:32:57;;;;;;;9.77;8.87;;;19.20;40.80;;;;;;5069562;28;20479;-54
2022/04/09 07:35:25;;;;;;;9.37;8.70;;;19.10;41.20;;;;;;5057641;28;20455;-49
2022/04/09 07:37:54;;;;;;;9.03;8.23;;;18.70;40.90;;;;;;5071757;28;20504;-51
2022/04/09 07:40:24;;;;;;;7.87;7.47;;;19.10;42.10;;;;;;5060779;28;20446;-52
2022/04/09 07:42:52;;;;;;;8.73;8.23;;;19.50;42.70;;;;;;5051843;28;20539;-57
2022/04/09 07:45:19;;;;;;;8.40;8.10;;;19.70;42.70;;;;;;5051321;28;20547;-53
2022/04/09 07:47:46;;;;;;;7.33;7.07;;;19.80;42.70;;;;;;5051498;28;20494;-53
2022/04/09 07:50:13;;;;;;;7.27;6.90;;;20.00;42.70;;;;;;5051442;28;20448;-53
2022/04/09 07:52:42;;;;;;;8.60;7.83;;;20.10;42.60;;;;;;5065320;28;20447;-52
2022/04/09 07:55:11;;;;;;;8.10;7.40;;;20.20;42.60;;;;;;5069769;28;20815;-56
2022/04/09 07:57:39;;;;;;;8.50;7.80;;;20.30;42.60;;;;;;5071456;28;20805;-52
2022/04/09 08:00:08;;;;;;;7.37;7.07;;;20.30;42.40;;;;;;5072131;28;20455;-49
2022/04/09 08:02:35;;;;;;;7.07;6.67;;;20.40;42.60;;;;;;5071784;28;20475;-56
2022/04/09 08:05:02;;;;;;;7.67;6.87;;;20.50;42.70;;;;;;5070259;28;20624;-63
2022/04/09 08:07:29;;;;;;;7.07;6.70;;;20.60;42.80;;;;;;5071036;28;20567;-56
2022/04/09 08:09:56;;;;;;;6.93;6.63;;;20.70;42.80;;;;;;5071322;28;20796;-54
2022/04/09 08:12:22;;;;;;;7.30;6.90;;;21.00;42.90;;;;;;5071456;28;20447;-58
2022/04/09 08:14:50;;;;;;;7.50;7.20;;;21.10;42.90;;;;;;5069575;28;20454;-57
2022/04/09 08:17:20;;;;;;;7.67;7.13;;;21.40;43.00;;;;;;5071296;28;20464;-60
2022/04/09 08:19:47;;;;;;;6.90;6.50;;;21.80;42.80;;;;;;5073546;28;20484;-62
2022/04/09 08:22:16;;;;;;;7.90;7.50;;;22.10;42.60;;;;;;5066029;28;20501;-56
2022/04/09 08:24:44;;;;;;;7.53;7.20;;;22.30;42.40;;;;;;5060646;28;20817;-56
2022/04/09 08:27:11;;;;;;;7.20;6.70;;;22.40;42.10;;;;;;5054748;28;20483;-56
2022/04/09 08:29:38;;;;;;;8.03;7.63;;;22.50;42.00;;;;;;5054820;28;20447;-60
2022/04/09 08:32:07;;;;;;;7.03;6.73;;;22.60;42.00;;;;;;5055953;28;20449;-60
2022/04/09 08:34:35;;;;;;;7.40;7.10;;;22.70;42.00;;;;;;5054857;28;20445;-61
2022/04/09 08:37:03;;;;;;;7.43;7.13;;;22.80;41.90;;;;;;5067841;28;20993;-55
2022/04/09 08:39:29;;;;;;;7.73;7.43;;;22.90;41.80;;;;;;5074982;28;20481;-57
2022/04/09 08:41:58;;;;;;;7.23;7.03;;;22.90;41.70;;;;;;5070907;28;20444;-63
2022/04/09 08:44:25;;;;;;;8.00;7.70;;;23.00;41.80;;;;;;5054708;28;20543;-59
2022/04/09 08:46:54;;;;;;;7.57;7.30;;;23.10;41.80;;;;;;5054363;28;20498;-53
2022/04/09 08:49:24;;;;;;;7.93;7.63;;;23.20;41.70;;;;;;5054952;28;20452;-57
2022/04/09 08:51:51;;;;;;;8.27;7.87;;;23.10;41.50;;;;;;5057515;28;20449;-53
2022/04/09 08:54:18;;;;;;;7.53;7.27;;;23.10;41.80;;;;;;5057239;28;20456;-55
2022/04/09 08:56:45;;;;;;;7.17;6.67;;;23.00;41.90;;;;;;5054164;28;20873;-55
2022/04/09 08:59:12;;;;;;;6.90;6.70;;;23.00;42.10;;;;;;5054274;28;20476;-55
2022/04/09 09:01:39;;;;;;;7.07;6.77;;;22.90;42.00;;;;;;5054747;28;20448;-53
2022/04/09 09:04:06;;;;;;;6.87;6.57;;;23.00;42.20;;;;;;5054564;28;20448;-53
2022/04/09 09:06:35;;;;;;;7.33;7.13;;;22.90;42.20;;;;;;5054325;28;20449;-53
2022/04/09 09:09:04;;;;;;;7.37;7.00;;;22.90;42.20;;;;;;5054023;28;20468;-54
2022/04/09 09:11:45;;;;;;;7.00;6.80;;;22.90;42.20;;;;;;5054089;28;20451;-55
2022/04/09 09:14:30;;;;;;;6.93;6.57;;;22.90;42.10;;;;;;5067243;28;20958;-53
2022/04/09 09:16:58;;;;;;;7.30;7.00;;;22.90;42.30;;;;;;5073619;28;20910;-50
2022/04/09 09:19:41;;;;;;;7.17;6.90;;;22.90;42.50;;;;;;5073986;28;20455;-54
2022/04/09 09:22:09;;;;;;;8.43;8.13;;;22.80;42.60;;;;;;5070086;28;20490;-53
2022/04/09 09:24:36;;;;;;;8.17;7.87;;;22.70;42.70;;;;;;5053890;28;20467;-49
2022/04/09 09:27:06;;;;;;;7.80;7.60;;;22.70;43.40;;;;;;5053608;28;20847;-46
2022/04/09 09:29:33;;;;;;;6.90;6.70;;;22.60;42.90;;;;;;5053274;28;20444;-47
2022/04/09 09:32:02;;;;;;;7.13;6.87;;;22.60;43.10;;;;;;5056053;28;20462;-46
2022/04/09 09:34:29;;;;;;;6.77;6.60;;;22.60;43.70;;;;;;5073814;28;20448;-47
2022/04/09 09:36:56;;;;;;;7.00;6.80;;;22.50;43.30;;;;;;5073397;28;20435;-49
2022/04/09 09:39:26;;;;;;;7.37;7.07;;;22.50;43.30;;;;;;5073590;28;20447;-53
2022/04/09 09:41:54;;;;;;;7.03;6.83;;;22.50;43.40;;;;;;5058413;28;20472;-53
2022/04/09 09:44:22;;;;;;;7.20;6.90;;;22.50;43.40;;;;;;5053454;28;20464;-48
2022/04/09 09:46:51;;;;;;;7.57;7.27;;;22.50;43.60;;;;;;5053417;28;20451;-56
2022/04/09 09:49:20;;;;;;;6.70;6.50;;;22.50;43.70;;;;;;5053545;28;20471;-54
2022/04/09 09:52:03;;;;;;;7.30;7.10;;;22.40;43.50;;;;;;5067309;28;20455;-50
2022/04/09 09:54:31;;;;;;;6.83;6.63;;;22.40;43.50;;;;;;5073635;28;20454;-55
2022/04/09 09:56:58;;;;;;;6.80;6.60;;;22.40;43.70;;;;;;5058107;28;20448;-51
2022/04/09 09:59:27;;;;;;;7.83;7.40;;;22.40;43.80;;;;;;5053365;28;20459;-49
2022/04/09 10:01:54;;;;;;;7.50;7.20;;;22.30;43.80;;;;;;5053375;28;20540;-51
2022/04/09 10:04:21;;;;;;;7.30;7.10;;;22.30;44.00;;;;;;5070875;28;20485;-50
2022/04/09 10:06:48;;;;;;;6.60;6.50;;;22.20;44.00;;;;;;5072914;28;20444;-50
2022/04/09 10:09:16;;;;;;;7.00;6.80;;;22.20;44.10;;;;;;5073234;28;20466;-49
2022/04/09 10:11:49;;;;;;;6.40;6.10;;;22.20;44.10;;;;;;5073062;28;20532;-49
2022/04/09 10:14:21;;;;;;;7.23;6.93;;;22.20;44.20;;;;;;5072968;28;20833;-49
2022/04/09 10:16:49;;;;;;;7.60;7.20;;;22.20;44.30;;;;;;5071170;28;20450;-49
2022/04/09 10:19:19;;;;;;;6.93;6.63;;;22.10;44.20;;;;;;5072713;28;20460;-49
2022/04/09 10:21:49;;;;;;;6.80;6.67;;;22.10;44.30;;;;;;5072799;28;20450;-50
2022/04/09 10:24:18;;;;;;;6.73;6.53;;;22.10;44.30;;;;;;5071236;28;20802;-50
2022/04/09 10:26:47;;;;;;;6.70;6.50;;;22.10;44.40;;;;;;5072516;28;20483;-50
2022/04/09 10:29:14;;;;;;;6.83;6.63;;;22.10;44.40;;;;;;5070734;28;20994;-53
2022/04/09 10:31:43;;;;;;;6.50;6.30;;;22.10;44.40;;;;;;5072959;28;20443;-52
2022/04/09 10:34:11;;;;;;;7.10;6.90;;;22.00;44.40;;;;;;5070908;28;20542;-49
2022/04/09 10:37:06;;;;;;;6.33;6.23;;;22.00;44.40;;;;;;5072714;28;20995;-55
2022/04/09 10:39:45;;;;;;;6.50;6.37;;;22.00;44.30;;;;;;5070266;28;20804;-56
2022/04/09 10:42:54;;;;;;;6.63;6.33;;;22.10;44.30;;;;;;5070666;28;20449;-53
2022/04/09 10:45:21;;;;;;;6.40;6.20;;;22.20;44.00;;;;;;5057459;28;20456;-56
2022/04/09 10:48:10;;;;;;;6.70;6.60;;;22.40;44.00;;;;;;5052331;28;20890;-54
2022/04/09 10:50:59;;;;;;;6.23;6.03;;;22.60;43.80;;;;;;5053661;28;20539;-48
2022/04/09 10:53:27;;;;;;;6.20;6.00;;;22.90;43.60;;;;;;5052268;28;20471;-51
2022/04/09 10:56:20;;;;;;;7.17;6.97;;;23.00;43.20;;;;;;5059955;28;20842;-56
2022/04/09 10:59:06;;;;;;;7.53;7.33;;;23.20;42.90;;;;;;5069401;28;20471;-52
2022/04/09 11:01:52;;;;;;;7.50;7.30;;;23.30;42.90;;;;;;5064650;28;20441;-51
2022/04/09 11:04:42;;;;;;;7.00;6.80;;;23.30;42.60;;;;;;5057162;28;20447;-54
2022/04/09 11:07:16;;;;;;;6.83;6.53;;;23.30;42.50;;;;;;5072135;28;20474;-52
2022/04/09 11:09:49;;;;;;;6.53;6.37;;;23.40;42.60;;;;;;5072552;28;20442;-54
2022/04/09 11:12:18;;;;;;;6.50;6.30;;;23.50;42.60;;;;;;5072504;28;20447;-53
2022/04/09 11:14:48;;;;;;;6.27;6.17;;;23.30;41.10;;;;;;5058766;28;20463;-48
2022/04/09 11:17:20;;;;;;;7.20;6.90;;;23.40;41.70;;;;;;5051714;28;20479;-50
2022/04/09 11:19:48;;;;;;;6.70;6.60;;;23.60;42.10;;;;;;5052035;28;20441;-49
2022/04/09 11:22:16;;;;;;;7.07;6.87;;;23.70;42.40;;;;;;5052030;28;20783;-53
2022/04/09 11:24:42;;;;;;;7.00;6.80;;;23.70;42.70;;;;;;5051856;28;20445;-50
2022/04/09 11:27:10;;;;;;;7.43;7.17;;;23.80;43.10;;;;;;5052730;28;20453;-55
2022/04/09 11:29:39;;;;;;;7.57;7.10;;;23.80;43.60;;;;;;5051561;28;20555;-55
2022/04/09 11:32:19;;;;;;;8.13;7.40;;;23.80;43.60;;;;;;5051540;28;20488;-57
2022/04/09 11:34:53;;;;;;;7.60;7.30;;;23.90;44.70;;;;;;5051753;28;20444;-56
2022/04/09 11:37:21;;;;;;;8.80;8.50;;;24.00;46.00;;;;;;5054245;28;20467;-55
2022/04/09 11:39:49;;;;;;;7.70;7.40;;;24.00;46.90;;;;;;5059203;28;20443;-54
2022/04/09 11:42:16;;;;;;;7.63;7.33;;;24.00;46.90;;;;;;5071826;28;20447;-50
2022/04/09 11:44:43;;;;;;;7.20;6.97;;;24.00;45.30;;;;;;5056183;28;20448;-55
2022/04/09 11:47:14;;;;;;;7.40;7.10;;;24.20;44.90;;;;;;5051124;28;20445;-52
2022/04/09 11:49:42;;;;;;;6.93;6.83;;;24.20;45.20;;;;;;5051395;28;20483;-53
2022/04/09 11:52:09;;;;;;;7.03;6.83;;;24.30;45.10;;;;;;5050745;28;20444;-52
2022/04/09 11:54:38;;;;;;;7.80;7.50;;;24.30;45.20;;;;;;5067022;28;20792;-55
2022/04/09 11:57:09;;;;;;;7.27;6.80;;;24.40;45.30;;;;;;5071064;28;20505;-57
2022/04/09 11:59:37;;;;;;;6.60;6.40;;;24.50;45.10;;;;;;5071939;28;20436;-48
2022/04/09 12:02:04;;;;;;;7.10;6.90;;;24.50;45.00;;;;;;5071384;28;20468;-50
2022/04/09 12:04:36;;;;;;;6.97;6.70;;;24.60;44.70;;;;;;5071391;28;20451;-55
2022/04/09 12:07:04;;;;;;;7.10;6.80;;;24.70;44.40;;;;;;5070931;28;20942;-52
2022/04/09 12:09:31;;;;;;;7.17;6.87;;;24.80;44.30;;;;;;5071201;28;20483;-51
2022/04/09 12:12:01;;;;;;;6.50;6.30;;;24.80;44.10;;;;;;5071584;28;20444;-48
2022/04/09 12:14:28;;;;;;;6.97;6.77;;;24.80;44.00;;;;;;5071200;28;20861;-48
2022/04/09 12:16:56;;;;;;;6.57;6.37;;;25.00;44.30;;;;;;5068391;28;20474;-55
2022/04/09 12:19:29;;;;;;;7.07;6.87;;;25.10;44.10;;;;;;5051156;28;20542;-50
2022/04/09 12:22:12;;;;;;;7.20;7.00;;;25.00;43.90;;;;;;5051059;28;20460;-50
2022/04/09 12:24:50;;;;;;;7.83;7.53;;;25.00;43.90;;;;;;5051085;28;20440;-56
2022/04/09 12:27:17;;;;;;;7.03;6.93;;;25.00;43.90;;;;;;5050642;28;20987;-49
2022/04/09 12:29:55;;;;;;;7.20;7.00;;;24.90;43.60;;;;;;5050945;28;20476;-55
2022/04/09 12:32:25;;;;;;;7.30;7.10;;;24.90;44.50;;;;;;5051128;28;20448;-51
2022/04/09 12:34:56;;;;;;;6.63;6.53;;;25.10;43.90;;;;;;5050949;28;20445;-52
2022/04/09 12:37:25;;;;;;;6.37;6.20;;;25.20;43.60;;;;;;5030810;28;20469;-49
2022/04/09 12:39:53;;;;;;;6.30;6.10;;;25.20;43.20;;;;;;5031093;28;20813;-56
2022/04/09 12:42:32;;;;;;;6.63;6.33;;;25.40;43.00;;;;;;5031068;28;20452;-51
2022/04/09 12:45:16;;;;;;;7.40;7.20;;;25.30;42.80;;;;;;5031045;28;20974;-55
2022/04/09 12:47:44;;;;;;;7.10;7.00;;;25.20;42.90;;;;;;5047470;28;20463;-51
2022/04/09 12:50:21;;;;;;;6.73;6.53;;;25.20;42.90;;;;;;5070875;28;20444;-49
2022/04/09 12:52:50;;;;;;;6.47;6.30;;;25.50;42.70;;;;;;5070801;28;20439;-54
2022/04/09 12:55:18;;;;;;;7.00;6.80;;;25.60;42.20;;;;;;5069885;28;20969;-52